Time;durP1;ratioP1;P1;durP2;ratioP2;P2;SDS_P1;SDS_P2;PMS_P1;PMS_P2;Temp;Humidity;BMP_temperature;BMP_pressure;BME280_temperature;BME280_humidity;BME280_pressure;Samples;Min_cycle;Max_cycle;Signal;HPM_P1;HPM_P2
2023/12/22 00:01:26;;;;;;;53.25;30.02;;;8.40;99.90;;;;;;4975187;28;20059;-83
2023/12/22 00:03:52;;;;;;;54.35;31.17;;;8.30;99.90;;;;;;4958815;28;20500;-83
2023/12/22 00:06:19;;;;;;;57.35;30.73;;;8.30;99.90;;;;;;4958715;28;20058;-83
2023/12/22 00:08:45;;;;;;;59.75;33.45;;;8.30;99.90;;;;;;4974804;28;20558;-83
2023/12/22 00:11:15;;;;;;;59.35;34.63;;;8.20;99.90;;;;;;4959022;28;20030;-84
2023/12/22 00:13:41;;;;;;;62.03;34.30;;;8.10;99.90;;;;;;4975763;28;20117;-83
2023/12/22 00:16:08;;;;;;;65.50;35.97;;;8.10;99.90;;;;;;4958590;28;20389;-83
2023/12/22 00:18:36;;;;;;;65.20;39.30;;;8.10;99.90;;;;;;4958614;28;20023;-83
2023/12/22 00:21:02;;;;;;;64.55;37.72;;;8.10;99.90;;;;;;4958379;28;20488;-83
2023/12/22 00:23:29;;;;;;;66.32;37.60;;;8.10;99.90;;;;;;4974735;28;20034;-83
2023/12/22 00:25:56;;;;;;;60.72;35.92;;;8.10;99.90;;;;;;4958692;28;20392;-84
2023/12/22 00:28:23;;;;;;;64.00;36.95;;;8.20;99.90;;;;;;4958316;28;20031;-84
2023/12/22 00:30:49;;;;;;;57.50;34.85;;;8.20;99.90;;;;;;4952494;28;20039;-84
2023/12/22 00:33:16;;;;;;;57.85;34.75;;;8.30;99.90;;;;;;4939073;29;20058;-83
2023/12/22 00:35:42;;;;;;;51.63;29.73;;;8.30;99.90;;;;;;4958263;28;20033;-83
2023/12/22 00:38:10;;;;;;;43.53;27.25;;;8.40;99.90;;;;;;4954784;29;20461;-83
2023/12/22 00:40:37;;;;;;;46.05;27.15;;;8.50;99.90;;;;;;4954899;28;20039;-83
2023/12/22 00:43:04;;;;;;;41.83;26.40;;;8.70;99.90;;;;;;4954887;28;20028;-83
2023/12/22 00:45:31;;;;;;;41.40;26.38;;;8.80;99.90;;;;;;4958063;28;20023;-84
2023/12/22 00:47:57;;;;;;;40.03;23.75;;;8.80;99.90;;;;;;4974002;28;20142;-83
2023/12/22 00:50:24;;;;;;;33.92;23.73;;;8.90;99.90;;;;;;4957952;28;20054;-83
2023/12/22 00:52:50;;;;;;;38.35;24.00;;;9.00;99.90;;;;;;4973951;28;20038;-82
2023/12/22 00:55:17;;;;;;;42.45;25.02;;;9.00;99.90;;;;;;4963747;28;20053;-83
2023/12/22 00:57:43;;;;;;;39.38;24.90;;;9.10;99.90;;;;;;4974033;28;20476;-83
2023/12/22 01:00:12;;;;;;;32.25;22.45;;;9.10;99.90;;;;;;4973729;28;20031;-83
2023/12/22 01:02:39;;;;;;;34.70;20.80;;;9.10;99.90;;;;;;4973955;28;20034;-83
2023/12/22 01:05:05;;;;;;;33.30;20.92;;;9.20;99.90;;;;;;4973828;28;20037;-83
2023/12/22 01:07:32;;;;;;;51.67;25.98;;;9.20;99.90;;;;;;4973656;28;20031;-82
2023/12/22 01:10:01;;;;;;;34.38;21.48;;;9.40;99.90;;;;;;4957778;28;20098;-83
2023/12/22 01:12:28;;;;;;;32.97;20.25;;;9.40;99.90;;;;;;4973650;28;20034;-83
2023/12/22 01:14:56;;;;;;;53.28;26.30;;;9.40;99.90;;;;;;4957590;28;20039;-83
2023/12/22 01:17:23;;;;;;;59.00;28.42;;;9.50;99.90;;;;;;4973583;28;20050;-84
2023/12/22 01:19:51;;;;;;;25.02;18.15;;;9.40;99.90;;;;;;4989778;28;20443;-83
2023/12/22 01:22:17;;;;;;;26.15;17.80;;;9.40;99.90;;;;;;4973850;28;20037;-84
2023/12/22 01:24:45;;;;;;;25.77;18.38;;;9.40;99.90;;;;;;4989770;28;20110;-84
2023/12/22 01:27:12;;;;;;;25.27;18.40;;;9.40;99.90;;;;;;4990021;28;20033;-83
2023/12/22 01:29:38;;;;;;;35.55;21.77;;;9.40;99.90;;;;;;4957850;28;20093;-84
2023/12/22 01:32:11;;;;;;;32.30;19.92;;;9.40;99.90;;;;;;4973643;28;20027;-83
2023/12/22 01:34:38;;;;;;;26.88;18.85;;;9.30;99.90;;;;;;4989463;28;20058;-83
2023/12/22 01:37:04;;;;;;;26.23;18.27;;;9.20;99.90;;;;;;4957432;28;20022;-83
2023/12/22 01:39:30;;;;;;;24.95;18.90;;;9.20;99.90;;;;;;4957181;28;20077;-83
2023/12/22 01:41:56;;;;;;;27.88;18.45;;;9.10;99.90;;;;;;4975900;28;20027;-83
2023/12/22 01:44:23;;;;;;;21.08;17.67;;;9.10;99.90;;;;;;4973398;28;20031;-83
2023/12/22 01:46:51;;;;;;;26.92;17.80;;;9.10;99.90;;;;;;4957132;28;20050;-83
2023/12/22 01:49:17;;;;;;;21.77;17.65;;;9.10;99.90;;;;;;4973463;28;20037;-83
2023/12/22 01:51:44;;;;;;;24.58;17.58;;;9.00;99.90;;;;;;4973440;28;20027;-83
2023/12/22 01:54:13;;;;;;;22.65;17.65;;;9.00;99.90;;;;;;4973338;28;20066;-83
2023/12/22 01:56:40;;;;;;;30.10;20.02;;;9.00;99.90;;;;;;4960854;28;20050;-84
2023/12/22 01:59:08;;;;;;;34.75;19.95;;;9.00;99.90;;;;;;4977125;28;20030;-83
2023/12/22 02:01:35;;;;;;;28.88;19.92;;;9.00;99.90;;;;;;4977274;28;20037;-83
2023/12/22 02:04:03;;;;;;;29.35;19.50;;;8.90;99.90;;;;;;4962986;28;20518;-83
2023/12/22 02:06:31;;;;;;;50.20;25.55;;;9.00;99.90;;;;;;4960993;28;20026;-84
2023/12/22 02:08:58;;;;;;;35.00;23.50;;;8.90;99.90;;;;;;4977182;28;20532;-84
2023/12/22 02:11:25;;;;;;;36.60;22.50;;;9.00;99.90;;;;;;4960947;28;20388;-84
2023/12/22 02:13:51;;;;;;;28.63;18.80;;;8.90;99.90;;;;;;4976720;28;20059;-83
2023/12/22 02:16:53;;;;;;;25.42;19.13;;;8.90;99.90;;;;;;4960877;28;20067;-83
2023/12/22 02:19:43;;;;;;;28.40;19.50;;;8.90;99.90;;;;;;4975628;28;20511;-83
2023/12/22 02:22:11;;;;;;;22.88;17.85;;;8.80;99.90;;;;;;4974057;28;20085;-83
2023/12/22 02:24:42;;;;;;;24.58;18.05;;;8.70;99.90;;;;;;4960429;28;20026;-84
2023/12/22 02:27:42;;;;;;;27.20;18.20;;;8.70;99.90;;;;;;4957210;28;20211;-83
2023/12/22 02:30:21;;;;;;;26.90;18.45;;;8.70;99.90;;;;;;4977637;28;20027;-83
2023/12/22 02:32:51;;;;;;;28.30;19.83;;;8.60;99.90;;;;;;4976719;28;20082;-83
2023/12/22 02:35:24;;;;;;;27.05;18.27;;;8.60;99.90;;;;;;4960145;28;20039;-82
2023/12/22 02:37:52;;;;;;;25.05;17.92;;;8.50;99.90;;;;;;4960304;28;20551;-84
2023/12/22 02:40:20;;;;;;;30.23;18.13;;;8.40;99.90;;;;;;4960399;28;20125;-84
2023/12/22 02:42:47;;;;;;;24.88;17.85;;;8.40;99.90;;;;;;4961055;28;20057;-84
2023/12/22 02:45:19;;;;;;;26.27;18.90;;;8.30;99.90;;;;;;4980332;28;20023;-83
2023/12/22 02:47:46;;;;;;;30.10;19.25;;;8.30;99.90;;;;;;4976347;28;20031;-84
2023/12/22 02:50:16;;;;;;;30.15;19.73;;;8.20;99.90;;;;;;4976758;28;20046;-83
2023/12/22 02:52:42;;;;;;;27.85;19.40;;;8.10;99.90;;;;;;4977156;28;20153;-84
2023/12/22 02:55:09;;;;;;;27.80;19.30;;;8.10;99.90;;;;;;4976082;28;20045;-83
2023/12/22 02:57:36;;;;;;;29.08;19.10;;;8.00;99.90;;;;;;4976090;28;20484;-83
2023/12/22 03:00:03;;;;;;;27.90;19.63;;;7.90;99.90;;;;;;4959798;28;20176;-83
2023/12/22 03:02:29;;;;;;;28.02;18.85;;;7.90;99.90;;;;;;4970510;28;20059;-83
2023/12/22 03:04:56;;;;;;;27.30;19.45;;;7.90;99.90;;;;;;4950002;28;20031;-83
2023/12/22 03:07:22;;;;;;;26.35;19.42;;;7.80;99.90;;;;;;4958460;28;20086;-83
2023/12/22 03:09:49;;;;;;;25.10;18.27;;;7.80;99.90;;;;;;4975770;28;20039;-83
2023/12/22 03:12:15;;;;;;;25.10;18.60;;;7.80;99.90;;;;;;4956316;29;20023;-83
2023/12/22 03:14:41;;;;;;;27.27;18.90;;;7.80;99.90;;;;;;4940348;28;20118;-83
2023/12/22 03:17:09;;;;;;;27.45;18.75;;;7.80;99.90;;;;;;4956247;28;20047;-83
2023/12/22 03:19:36;;;;;;;27.20;18.60;;;7.70;99.90;;;;;;4940287;29;20452;-83
2023/12/22 03:22:06;;;;;;;29.17;18.30;;;7.80;99.90;;;;;;4956453;28;20035;-83
2023/12/22 03:24:33;;;;;;;26.73;18.90;;;7.80;99.90;;;;;;4959329;28;20518;-83
2023/12/22 03:27:00;;;;;;;26.13;18.05;;;7.80;99.90;;;;;;4959431;28;20033;-83
2023/12/22 03:29:29;;;;;;;23.15;17.63;;;7.80;99.90;;;;;;4975301;28;20031;-83
2023/12/22 03:31:55;;;;;;;27.52;18.13;;;7.90;99.90;;;;;;4959375;28;20031;-83
2023/12/22 03:34:22;;;;;;;31.42;18.48;;;8.00;99.90;;;;;;4958851;28;20129;-83
2023/12/22 03:36:48;;;;;;;25.52;17.45;;;8.00;99.90;;;;;;4964320;28;20163;-83
2023/12/22 03:39:18;;;;;;;23.33;16.90;;;7.90;99.90;;;;;;4966464;28;20050;-83
2023/12/22 03:41:44;;;;;;;28.42;18.02;;;7.90;99.90;;;;;;4959597;28;20030;-83
2023/12/22 03:44:11;;;;;;;27.20;16.30;;;8.00;99.90;;;;;;4959065;28;20023;-83
2023/12/22 03:46:37;;;;;;;21.20;15.45;;;8.00;99.90;;;;;;4959317;28;20451;-83
2023/12/22 03:49:03;;;;;;;17.38;13.73;;;8.20;99.90;;;;;;4955551;29;20031;-83
2023/12/22 03:51:30;;;;;;;24.02;13.15;;;8.30;99.90;;;;;;4955786;28;20028;-83
2023/12/22 03:53:56;;;;;;;20.17;11.20;;;8.50;99.90;;;;;;4939692;28;20117;-83
2023/12/22 03:56:22;;;;;;;18.70;10.88;;;8.70;99.90;;;;;;4955545;28;20035;-82
2023/12/22 03:58:49;;;;;;;14.63;10.00;;;9.00;99.90;;;;;;4939302;28;20031;-82
2023/12/22 04:01:16;;;;;;;10.10;8.10;;;9.30;99.90;;;;;;4958065;28;20489;-82
2023/12/22 04:03:42;;;;;;;7.20;6.38;;;9.70;99.90;;;;;;4940191;29;20095;-83
2023/12/22 04:06:08;;;;;;;16.77;5.90;;;10.10;99.90;;;;;;4955057;29;20037;-82
2023/12/22 04:08:35;;;;;;;8.48;5.97;;;10.30;99.90;;;;;;4965206;28;20026;-81
2023/12/22 04:11:01;;;;;;;9.38;5.18;;;10.40;99.90;;;;;;4974291;28;20054;-83
2023/12/22 04:13:28;;;;;;;11.90;5.25;;;10.50;99.90;;;;;;4951796;28;20035;-82
2023/12/22 04:15:54;;;;;;;8.23;5.90;;;10.60;99.90;;;;;;4967383;28;20073;-83
2023/12/22 04:18:21;;;;;;;9.50;5.93;;;10.80;99.90;;;;;;4990071;28;20489;-82
2023/12/22 04:20:49;;;;;;;11.38;6.32;;;10.70;99.90;;;;;;4975139;28;20046;-83
2023/12/22 04:23:16;;;;;;;10.43;6.57;;;10.60;99.90;;;;;;4990545;28;20476;-84
2023/12/22 04:25:42;;;;;;;9.85;7.22;;;10.70;99.90;;;;;;4974154;28;20023;-82
2023/12/22 04:28:08;;;;;;;11.35;7.55;;;10.50;99.90;;;;;;4957708;28;20031;-82
2023/12/22 04:30:35;;;;;;;16.35;8.05;;;10.50;99.90;;;;;;4969032;28;20038;-83
2023/12/22 04:33:02;;;;;;;13.05;8.00;;;10.40;99.90;;;;;;4938028;29;20552;-83
2023/12/22 04:35:29;;;;;;;12.88;8.50;;;10.30;99.90;;;;;;4946480;28;20035;-85
2023/12/22 04:37:56;;;;;;;14.25;8.70;;;10.20;99.90;;;;;;4954691;29;20051;-84
2023/12/22 04:40:23;;;;;;;14.65;8.98;;;10.10;99.90;;;;;;4939295;29;20042;-84
2023/12/22 04:42:50;;;;;;;10.25;8.52;;;10.10;99.90;;;;;;4942317;28;20483;-84
2023/12/22 04:45:17;;;;;;;9.65;8.85;;;10.10;99.90;;;;;;4962244;28;20026;-84
2023/12/22 04:47:43;;;;;;;13.20;9.00;;;10.10;99.90;;;;;;4952881;28;20369;-84
2023/12/22 04:50:10;;;;;;;13.73;9.20;;;10.00;99.90;;;;;;4974223;28;20041;-84
2023/12/22 04:52:36;;;;;;;11.52;9.05;;;10.00;99.90;;;;;;4974451;28;20010;-84
2023/12/22 04:55:06;;;;;;;15.93;9.75;;;10.00;99.90;;;;;;4973629;28;20488;-82
2023/12/22 04:57:33;;;;;;;13.05;9.68;;;10.00;99.90;;;;;;4971167;28;20077;-85
2023/12/22 04:59:59;;;;;;;15.57;10.23;;;9.90;99.90;;;;;;4953827;28;20031;-84
2023/12/22 05:02:25;;;;;;;12.73;10.57;;;9.90;99.90;;;;;;4954246;29;20027;-83
2023/12/22 05:04:52;;;;;;;14.18;10.82;;;9.80;99.90;;;;;;4957335;28;20031;-83
2023/12/22 05:07:18;;;;;;;16.58;10.77;;;9.80;99.90;;;;;;4957455;28;20051;-83
2023/12/22 05:09:45;;;;;;;11.52;10.45;;;9.80;99.90;;;;;;4959539;28;20054;-83
2023/12/22 05:12:11;;;;;;;13.98;10.30;;;9.70;99.90;;;;;;4963382;28;20023;-83
2023/12/22 05:14:38;;;;;;;13.90;11.23;;;9.70;99.90;;;;;;4972807;28;20030;-82
2023/12/22 05:17:04;;;;;;;13.73;10.88;;;9.70;99.90;;;;;;4954402;28;20480;-88
2023/12/22 05:19:31;;;;;;;12.85;11.45;;;9.70;99.90;;;;;;4971520;28;20049;-83
2023/12/22 05:21:57;;;;;;;12.63;11.20;;;9.60;99.90;;;;;;4943666;28;20031;-84
2023/12/22 05:24:24;;;;;;;11.73;11.05;;;9.60;99.90;;;;;;4973664;28;20058;-84
2023/12/22 05:26:53;;;;;;;14.73;11.77;;;9.50;99.90;;;;;;4953220;28;20066;-84
2023/12/22 05:29:19;;;;;;;13.40;12.05;;;9.50;99.90;;;;;;4953944;28;20055;-85
2023/12/22 05:31:46;;;;;;;12.18;11.35;;;9.50;99.90;;;;;;4946869;28;20393;-84
2023/12/22 05:34:12;;;;;;;13.48;11.23;;;9.50;99.90;;;;;;4975905;28;20062;-85
2023/12/22 05:36:39;;;;;;;12.02;10.90;;;9.40;99.90;;;;;;4961678;28;20035;-85
2023/12/22 05:39:09;;;;;;;16.48;11.48;;;9.40;99.90;;;;;;4956412;28;20043;-84
2023/12/22 05:41:37;;;;;;;12.07;11.00;;;9.30;99.90;;;;;;4977145;28;20037;-83
2023/12/22 05:44:13;;;;;;;13.82;11.05;;;9.30;99.90;;;;;;4971196;28;20030;-83
2023/12/22 05:46:40;;;;;;;17.58;11.98;;;9.20;99.90;;;;;;4976513;28;20089;-83
2023/12/22 05:49:06;;;;;;;12.77;11.70;;;9.10;99.90;;;;;;4976536;28;20123;-83
2023/12/22 05:51:39;;;;;;;13.23;12.00;;;9.20;99.90;;;;;;4986999;28;20125;-84
2023/12/22 05:54:10;;;;;;;13.05;12.00;;;9.20;99.90;;;;;;4976984;28;20441;-83
2023/12/22 05:56:37;;;;;;;13.25;12.10;;;9.20;99.90;;;;;;4958158;28;20050;-83
2023/12/22 05:59:03;;;;;;;13.68;12.35;;;9.10;99.90;;;;;;4957315;28;20019;-83
2023/12/22 06:01:29;;;;;;;13.77;12.27;;;9.20;99.90;;;;;;4957193;29;20081;-83
2023/12/22 06:03:59;;;;;;;15.43;12.32;;;9.20;99.90;;;;;;4941457;29;20035;-82
2023/12/22 06:06:27;;;;;;;13.23;12.13;;;9.30;99.90;;;;;;4957285;29;20053;-82
2023/12/22 06:08:54;;;;;;;13.75;12.60;;;9.30;99.90;;;;;;4968881;28;20038;-82
2023/12/22 06:11:20;;;;;;;15.38;12.60;;;9.40;99.90;;;;;;4976656;28;20030;-83
2023/12/22 06:13:46;;;;;;;13.13;11.90;;;9.50;99.90;;;;;;4960649;28;20031;-83
2023/12/22 06:16:14;;;;;;;14.13;11.63;;;9.60;99.90;;;;;;4969086;28;20030;-83
2023/12/22 06:18:41;;;;;;;14.63;11.95;;;9.60;99.90;;;;;;4976213;28;20019;-82
2023/12/22 06:21:10;;;;;;;12.93;11.80;;;9.70;99.90;;;;;;4976151;28;20038;-83
2023/12/22 06:23:40;;;;;;;13.30;11.48;;;9.70;99.90;;;;;;4976448;28;20027;-83
2023/12/22 06:26:10;;;;;;;12.48;11.27;;;9.80;99.90;;;;;;4955370;28;20031;-83
2023/12/22 06:28:39;;;;;;;13.50;11.70;;;9.80;99.90;;;;;;4940267;29;20038;-82
2023/12/22 06:31:07;;;;;;;12.95;11.50;;;9.90;99.90;;;;;;4940706;29;20038;-82
2023/12/22 06:33:34;;;;;;;12.25;10.77;;;10.00;99.90;;;;;;4940736;29;20115;-83
2023/12/22 06:36:00;;;;;;;16.05;11.13;;;10.20;99.90;;;;;;4966155;28;20038;-83
2023/12/22 06:38:27;;;;;;;11.68;10.50;;;10.30;99.90;;;;;;4985200;28;20074;-83
2023/12/22 06:40:55;;;;;;;16.90;11.63;;;10.30;99.90;;;;;;4979272;28;20030;-83
2023/12/22 06:43:27;;;;;;;17.02;11.80;;;10.40;99.90;;;;;;4979198;28;20122;-83
2023/12/22 06:45:55;;;;;;;13.52;10.63;;;10.50;99.90;;;;;;4979048;28;20042;-83
2023/12/22 06:48:22;;;;;;;12.70;10.27;;;10.60;99.90;;;;;;4979480;28;20044;-83
2023/12/22 06:50:48;;;;;;;12.20;10.25;;;10.70;99.90;;;;;;4979970;28;20033;-85
2023/12/22 06:53:14;;;;;;;11.40;10.30;;;10.70;99.90;;;;;;4979678;28;20084;-84
2023/12/22 06:55:41;;;;;;;18.77;12.38;;;10.80;99.90;;;;;;4979712;28;20062;-84
2023/12/22 06:58:08;;;;;;;16.90;13.15;;;10.80;99.90;;;;;;4979431;28;20018;-84
2023/12/22 07:00:37;;;;;;;21.75;15.20;;;10.80;99.90;;;;;;4979365;28;20053;-84
2023/12/22 07:03:05;;;;;;;21.98;13.40;;;10.90;99.90;;;;;;4975453;28;20047;-85
2023/12/22 07:05:32;;;;;;;23.73;14.18;;;10.90;99.90;;;;;;4959331;28;20035;-85
2023/12/22 07:08:00;;;;;;;26.00;13.52;;;10.90;99.90;;;;;;4959272;28;20042;-84
2023/12/22 07:10:29;;;;;;;17.02;13.13;;;11.00;99.90;;;;;;4959384;28;20037;-92
2023/12/22 07:12:56;;;;;;;13.93;12.57;;;11.10;99.90;;;;;;4959981;28;20558;-90
2023/12/22 07:15:26;;;;;;;19.13;13.82;;;11.20;99.90;;;;;;4950043;28;20527;-90
2023/12/22 07:17:53;;;;;;;14.60;13.20;;;11.30;99.90;;;;;;4965412;28;20077;-90
2023/12/22 07:20:22;;;;;;;16.92;14.02;;;11.40;99.90;;;;;;4959163;28;20528;-89
2023/12/22 07:22:48;;;;;;;15.60;14.00;;;11.60;99.90;;;;;;4959078;28;20151;-91
2023/12/22 07:25:15;;;;;;;25.45;14.48;;;11.60;99.90;;;;;;4958924;28;20053;-89
2023/12/22 07:27:42;;;;;;;20.08;14.40;;;11.70;99.90;;;;;;4959094;28;20122;-88
2023/12/22 07:30:11;;;;;;;18.95;13.95;;;11.80;99.90;;;;;;4959311;28;20115;-90
2023/12/22 07:32:38;;;;;;;15.13;13.73;;;11.90;99.90;;;;;;4943270;28;20033;-91
2023/12/22 07:35:05;;;;;;;15.32;13.82;;;12.00;99.90;;;;;;4943620;28;20066;-90
2023/12/22 07:37:31;;;;;;;15.52;13.98;;;12.00;99.90;;;;;;4943048;28;20054;-90
2023/12/22 07:39:58;;;;;;;18.88;13.98;;;12.00;99.90;;;;;;4951751;28;20121;-89
2023/12/22 07:42:24;;;;;;;18.15;15.18;;;12.10;99.90;;;;;;4979456;28;20022;-89
2023/12/22 07:44:51;;;;;;;19.52;14.80;;;12.10;99.90;;;;;;4979209;28;20080;-92
2023/12/22 07:47:17;;;;;;;23.45;15.50;;;12.10;99.90;;;;;;4979170;28;20023;-90
2023/12/22 07:49:44;;;;;;;20.80;16.73;;;12.10;99.90;;;;;;4975845;28;20030;-90
2023/12/22 07:52:10;;;;;;;18.60;14.80;;;12.20;99.90;;;;;;4962708;28;20026;-89
2023/12/22 07:54:37;;;;;;;19.08;15.52;;;12.20;99.90;;;;;;4963039;28;20035;-89
2023/12/22 07:57:04;;;;;;;19.05;15.50;;;12.20;99.90;;;;;;4993270;28;20030;-90
2023/12/22 07:59:30;;;;;;;16.17;14.70;;;12.20;99.90;;;;;;4979137;28;20033;-90
2023/12/22 08:01:57;;;;;;;24.67;14.77;;;12.30;99.90;;;;;;4979194;28;20042;-90
2023/12/22 08:04:23;;;;;;;15.75;14.13;;;12.60;99.90;;;;;;4962757;28;20395;-90
2023/12/22 08:06:50;;;;;;;20.20;13.98;;;12.90;99.90;;;;;;4962513;28;20027;-89
2023/12/22 08:09:16;;;;;;;23.58;13.70;;;13.20;99.90;;;;;;4962254;28;20038;-92
2023/12/22 08:11:46;;;;;;;16.20;14.55;;;13.40;99.90;;;;;;4962710;28;20089;-90
2023/12/22 08:14:15;;;;;;;20.17;14.73;;;13.50;99.90;;;;;;4962505;28;20125;-92
2023/12/22 08:16:44;;;;;;;15.73;14.10;;;13.60;99.90;;;;;;4962552;28;20030;-91
2023/12/22 08:19:11;;;;;;;18.67;14.48;;;13.80;99.90;;;;;;4962888;28;20026;-90
2023/12/22 08:21:37;;;;;;;20.08;15.48;;;14.00;99.90;;;;;;4962847;28;20504;-92
2023/12/22 08:24:04;;;;;;;17.40;15.63;;;14.20;99.90;;;;;;4962716;28;20041;-90
2023/12/22 08:26:30;;;;;;;18.13;15.68;;;14.30;99.90;;;;;;4962615;28;20450;-90
2023/12/22 08:29:00;;;;;;;18.48;16.52;;;14.40;99.90;;;;;;4963552;28;20034;-89
2023/12/22 08:31:27;;;;;;;22.02;16.42;;;14.60;99.90;;;;;;4962772;28;20023;-90
2023/12/22 08:33:53;;;;;;;18.73;16.73;;;14.70;99.90;;;;;;4965890;28;20122;-91
2023/12/22 08:36:20;;;;;;;17.50;16.17;;;14.80;99.90;;;;;;4983676;28;20034;-92
2023/12/22 08:38:46;;;;;;;18.92;17.00;;;14.90;99.90;;;;;;4964646;28;20152;-91
2023/12/22 08:41:14;;;;;;;23.25;17.27;;;15.00;99.90;;;;;;4966730;28;20039;-89
2023/12/22 08:43:41;;;;;;;21.55;18.05;;;15.20;99.90;;;;;;4966009;28;20046;-90
2023/12/22 08:46:09;;;;;;;19.85;17.70;;;15.30;99.90;;;;;;4983613;28;20038;-90
2023/12/22 08:48:39;;;;;;;19.23;17.73;;;15.40;99.90;;;;;;4966051;28;20030;-89
2023/12/22 08:51:12;;;;;;;19.80;17.85;;;15.40;99.90;;;;;;4965298;28;20053;-90
2023/12/22 08:53:39;;;;;;;24.63;18.45;;;15.50;99.90;;;;;;4962963;28;20057;-89
2023/12/22 08:56:08;;;;;;;21.52;17.67;;;15.60;99.90;;;;;;4962650;28;20065;-94
2023/12/22 08:58:35;;;;;;;21.45;17.85;;;15.70;99.90;;;;;;4966107;28;20377;-90
2023/12/22 09:01:07;;;;;;;27.77;18.88;;;15.70;99.90;;;;;;4969111;28;20030;-91
2023/12/22 09:03:35;;;;;;;22.52;19.73;;;15.80;99.90;;;;;;4964332;28;20049;-92
2023/12/22 09:06:05;;;;;;;20.90;18.80;;;15.90;99.90;;;;;;4966361;28;20068;-90
2023/12/22 09:08:31;;;;;;;21.98;19.50;;;15.90;99.90;;;;;;4968533;28;20026;-91
2023/12/22 09:11:02;;;;;;;22.58;19.38;;;16.00;99.90;;;;;;4965907;28;20061;-90
2023/12/22 09:13:29;;;;;;;21.63;19.75;;;16.10;99.90;;;;;;4967377;28;20128;-89
2023/12/22 09:15:58;;;;;;;28.65;20.75;;;16.10;99.90;;;;;;4966707;28;20035;-90
2023/12/22 09:18:24;;;;;;;22.60;20.25;;;16.20;99.90;;;;;;4963011;28;20077;-90
2023/12/22 09:20:51;;;;;;;23.08;20.20;;;16.20;99.90;;;;;;4961464;28;20026;-90
2023/12/22 09:23:17;;;;;;;23.35;20.38;;;16.20;99.90;;;;;;4961373;28;20077;-91
2023/12/22 09:25:44;;;;;;;21.52;19.58;;;16.30;99.90;;;;;;4961449;28;20424;-92
2023/12/22 09:28:11;;;;;;;21.48;19.65;;;16.30;99.90;;;;;;4961989;28;20030;-91
2023/12/22 09:30:37;;;;;;;20.65;19.15;;;16.30;99.90;;;;;;4974025;28;20030;-92
2023/12/22 09:33:10;;;;;;;21.15;19.35;;;16.20;99.90;;;;;;4942250;28;20027;-89
2023/12/22 09:35:36;;;;;;;21.75;19.70;;;16.20;99.90;;;;;;4958067;28;20042;-90
2023/12/22 09:38:03;;;;;;;22.27;20.38;;;16.20;99.90;;;;;;4938782;29;20047;-90
2023/12/22 09:40:30;;;;;;;20.50;19.10;;;16.30;99.90;;;;;;4954943;29;20107;-89
2023/12/22 09:42:58;;;;;;;21.13;19.08;;;16.30;99.90;;;;;;4954889;28;20023;-90
2023/12/22 09:45:25;;;;;;;20.88;18.58;;;16.40;99.90;;;;;;4955366;29;20573;-89
2023/12/22 09:47:52;;;;;;;21.02;19.52;;;16.50;99.90;;;;;;4959478;29;20050;-91
2023/12/22 09:50:21;;;;;;;21.70;19.67;;;16.50;99.90;;;;;;4956259;29;20031;-91
2023/12/22 09:52:47;;;;;;;20.65;19.00;;;16.60;99.90;;;;;;4955967;29;20027;-89
2023/12/22 09:55:14;;;;;;;19.17;17.83;;;16.70;99.90;;;;;;4970699;28;20039;-90
2023/12/22 09:57:46;;;;;;;20.83;18.80;;;16.60;99.90;;;;;;4970478;28;20027;-91
2023/12/22 10:00:15;;;;;;;20.55;18.83;;;16.70;99.90;;;;;;4970567;28;20118;-89
2023/12/22 10:02:42;;;;;;;20.95;19.35;;;16.60;99.90;;;;;;4970660;28;20062;-90
2023/12/22 10:05:10;;;;;;;20.45;19.05;;;16.60;99.90;;;;;;4970462;28;20035;-89
2023/12/22 10:07:36;;;;;;;20.95;19.15;;;16.70;99.90;;;;;;4938963;29;20027;-92
2023/12/22 10:10:04;;;;;;;20.58;18.90;;;16.60;99.90;;;;;;4954714;29;20035;-92
2023/12/22 10:12:33;;;;;;;21.08;19.40;;;16.70;99.90;;;;;;4954696;29;20114;-91
2023/12/22 10:15:01;;;;;;;21.65;19.50;;;16.70;99.90;;;;;;4955316;28;20122;-90
2023/12/22 10:17:28;;;;;;;21.85;20.27;;;16.80;99.90;;;;;;4957892;28;20019;-92
2023/12/22 10:19:58;;;;;;;22.27;20.58;;;16.70;99.90;;;;;;4958224;29;20540;-90
2023/12/22 10:22:24;;;;;;;22.67;20.88;;;16.70;99.90;;;;;;4957936;28;20058;-91
2023/12/22 10:24:51;;;;;;;22.85;21.33;;;16.70;99.90;;;;;;4958812;29;20035;-91
2023/12/22 10:27:24;;;;;;;22.52;21.08;;;16.70;99.90;;;;;;4959339;29;20135;-91
2023/12/22 10:29:54;;;;;;;23.47;21.30;;;16.80;99.90;;;;;;4958529;28;20032;-91
2023/12/22 10:32:22;;;;;;;22.27;20.50;;;16.80;99.90;;;;;;4954631;29;20028;-89
2023/12/22 10:34:52;;;;;;;22.90;20.92;;;16.80;99.90;;;;;;4938650;29;20233;-91
2023/12/22 10:37:21;;;;;;;22.13;20.52;;;16.80;99.90;;;;;;4940817;28;20035;-92
2023/12/22 10:39:49;;;;;;;22.58;20.98;;;16.80;99.90;;;;;;4980316;28;20057;-90
2023/12/22 10:42:15;;;;;;;23.30;21.50;;;16.80;99.90;;;;;;4980164;28;20061;-89
2023/12/22 10:44:45;;;;;;;22.85;21.08;;;16.80;99.90;;;;;;4964530;28;20488;-90
2023/12/22 10:47:12;;;;;;;24.20;22.02;;;16.80;99.90;;;;;;4976266;28;20030;-90
2023/12/22 10:49:39;;;;;;;24.60;22.42;;;16.80;99.90;;;;;;4980112;28;20399;-90
2023/12/22 10:52:06;;;;;;;23.90;22.13;;;16.80;99.90;;;;;;4980213;28;20061;-94
2023/12/22 10:54:32;;;;;;;24.73;22.88;;;16.80;99.90;;;;;;4980107;28;20042;-92
2023/12/22 10:57:00;;;;;;;23.77;22.20;;;16.80;99.90;;;;;;4980033;28;20479;-91
2023/12/22 10:59:30;;;;;;;24.83;22.52;;;16.80;99.90;;;;;;4979846;28;20030;-90
2023/12/22 11:02:02;;;;;;;23.88;22.10;;;16.90;99.90;;;;;;4979797;28;20018;-91
2023/12/22 11:04:31;;;;;;;24.35;22.25;;;16.80;99.90;;;;;;4981337;28;20026;-89
2023/12/22 11:06:59;;;;;;;25.65;23.48;;;16.80;99.90;;;;;;4979739;28;20041;-92
2023/12/22 11:09:30;;;;;;;24.98;23.00;;;16.80;99.90;;;;;;4979713;28;20126;-91
2023/12/22 11:11:57;;;;;;;25.10;23.30;;;16.90;99.90;;;;;;4978798;28;20090;-91
2023/12/22 11:14:25;;;;;;;25.40;23.35;;;16.80;99.90;;;;;;4963379;28;20062;-90
2023/12/22 11:16:54;;;;;;;26.20;23.90;;;16.90;99.90;;;;;;4960640;28;20034;-88
2023/12/22 11:19:26;;;;;;;26.05;24.00;;;17.00;99.90;;;;;;4957145;28;20023;-91
2023/12/22 11:21:59;;;;;;;25.33;23.15;;;16.90;99.90;;;;;;4976351;28;20042;-89
2023/12/22 11:24:29;;;;;;;25.02;23.20;;;16.90;99.90;;;;;;4980180;28;20180;-92
2023/12/22 11:27:00;;;;;;;26.05;23.85;;;16.90;99.90;;;;;;4965209;28;20157;-92
2023/12/22 11:29:27;;;;;;;26.85;24.40;;;16.90;99.90;;;;;;4964419;28;20085;-91
2023/12/22 11:31:58;;;;;;;25.48;23.58;;;16.90;99.90;;;;;;4963190;28;20032;-82
2023/12/22 11:34:28;;;;;;;26.17;24.35;;;16.90;99.90;;;;;;4963383;28;20043;-86
2023/12/22 11:36:57;;;;;;;26.58;24.88;;;17.00;99.90;;;;;;4962698;28;20032;-83
2023/12/22 11:39:27;;;;;;;26.60;24.63;;;17.00;99.90;;;;;;4959164;28;20047;-86
2023/12/22 11:41:56;;;;;;;25.98;24.10;;;16.90;99.90;;;;;;4975411;28;20034;-85
2023/12/22 11:44:23;;;;;;;25.65;23.73;;;17.00;99.90;;;;;;4972183;28;20026;-84
2023/12/22 11:47:04;;;;;;;25.73;23.65;;;16.90;99.90;;;;;;4975359;28;20038;-84
2023/12/22 11:49:36;;;;;;;24.60;22.80;;;16.90;99.90;;;;;;4958927;28;20031;-86
2023/12/22 11:52:17;;;;;;;26.75;24.38;;;17.00;99.90;;;;;;4974860;28;20062;-83
2023/12/22 11:54:49;;;;;;;26.48;24.17;;;17.10;99.90;;;;;;4961854;28;20058;-87
2023/12/22 11:57:28;;;;;;;26.08;24.40;;;17.00;99.90;;;;;;4971139;28;20041;-86
2023/12/22 12:00:03;;;;;;;26.63;24.40;;;17.00;99.90;;;;;;4973195;28;20046;-88
2023/12/22 12:02:41;;;;;;;25.57;23.80;;;17.10;99.90;;;;;;4971072;28;20027;-86
2023/12/22 12:05:10;;;;;;;25.23;23.27;;;17.10;99.90;;;;;;4952028;28;20027;-85
2023/12/22 12:07:45;;;;;;;24.73;22.92;;;17.20;99.90;;;;;;4983870;28;20089;-86
2023/12/22 12:10:33;;;;;;;24.80;22.67;;;17.20;99.90;;;;;;4970428;28;20031;-84
2023/12/22 12:13:15;;;;;;;24.55;22.88;;;17.10;99.90;;;;;;4970080;28;20026;-82
2023/12/22 12:15:42;;;;;;;25.90;23.90;;;17.00;99.90;;;;;;4981683;28;20041;-85
2023/12/22 12:18:09;;;;;;;26.10;24.13;;;17.00;99.90;;;;;;4957856;28;20031;-84
2023/12/22 12:20:35;;;;;;;26.05;24.05;;;17.00;99.90;;;;;;4973815;28;20033;-88
2023/12/22 12:23:02;;;;;;;25.23;23.45;;;17.00;99.90;;;;;;4970495;28;20050;-89
2023/12/22 12:25:32;;;;;;;24.95;22.95;;;17.00;99.90;;;;;;4974972;28;20158;-85
2023/12/22 12:28:11;;;;;;;25.80;23.45;;;17.00;99.90;;;;;;4958333;28;20042;-85
2023/12/22 12:30:39;;;;;;;24.58;22.52;;;17.00;99.90;;;;;;4959350;28;20034;-84
2023/12/22 12:33:11;;;;;;;23.55;21.88;;;17.00;99.90;;;;;;4958636;28;20077;-84
2023/12/22 12:35:40;;;;;;;22.95;21.52;;;17.00;99.90;;;;;;4967568;28;20084;-84
2023/12/22 12:38:06;;;;;;;23.50;21.70;;;17.10;99.90;;;;;;4944762;28;20062;-85